createdAt,value
2023-04-05T00:01:07.814Z,98019.75
2023-04-05T00:03:35.994Z,98018.03
2023-04-05T00:06:05.511Z,98021.50
2023-04-05T00:08:33.420Z,98024.22
2023-04-05T00:11:01.949Z,98021.63
2023-04-05T00:13:30.486Z,98021.63
2023-04-05T00:16:01.306Z,98024.22
2023-04-05T00:18:34.419Z,98021.63
2023-04-05T00:21:02.415Z,98015.66
2023-04-05T00:23:37.518Z,98012.16
2023-04-05T00:26:05.621Z,98007.81
2023-04-05T00:28:33.369Z,98000.13
2023-04-05T00:31:02.474Z,98006.97
2023-04-05T00:33:30.222Z,98002.78
2023-04-05T00:35:58.035Z,98004.47
2023-04-05T00:38:25.909Z,98001.16
2023-04-05T00:40:53.699Z,98012.31
2023-04-05T00:43:21.439Z,98008.06
2023-04-05T00:45:49.345Z,98005.41
2023-04-05T00:48:18.559Z,98004.53
2023-04-05T00:50:47.680Z,98007.22
2023-04-05T00:53:16.246Z,98000.34
2023-04-05T00:55:44.092Z,97995.16
2023-04-05T00:58:11.814Z,97995.16
2023-04-05T01:00:40.098Z,97997.72
2023-04-05T01:03:08.570Z,97973.81
2023-04-05T01:05:40.084Z,97991.78
2023-04-05T01:08:15.778Z,97993.44
2023-04-05T01:10:46.134Z,97990.03
2023-04-05T01:13:13.951Z,97987.47
2023-04-05T01:15:42.527Z,97980.66
2023-04-05T01:18:11.955Z,97978.06
2023-04-05T01:20:45.733Z,97970.31
2023-04-05T01:23:37.664Z,97973.88
2023-04-05T01:26:36.899Z,97971.31
2023-04-05T01:29:50.442Z,97962.75
2023-04-05T01:32:35.598Z,97967.22
2023-04-05T01:35:07.752Z,97966.44
2023-04-05T01:37:36.138Z,97918.56
2023-04-05T01:40:06.202Z,97958.75
2023-04-05T01:42:33.978Z,97957.13
2023-04-05T01:45:01.712Z,97953.81
2023-04-05T01:47:30.993Z,97956.44
2023-04-05T01:49:58.720Z,97957.41
2023-04-05T01:52:26.496Z,97953.19
2023-04-05T01:54:54.264Z,97950.69
2023-04-05T01:57:22.009Z,97947.28
2023-04-05T01:59:49.766Z,97949.97
2023-04-05T02:02:17.648Z,97960.34
2023-04-05T02:04:46.821Z,97957.75
2023-04-05T02:07:14.620Z,97951.81
2023-04-05T02:09:42.558Z,97956.16
2023-04-05T02:12:10.506Z,97951.88
2023-04-05T02:14:38.744Z,97950.09
2023-04-05T02:17:06.738Z,97950.13
2023-04-05T02:19:40.780Z,97949.41
2023-04-05T02:22:10.129Z,97948.63
2023-04-05T02:24:37.982Z,97936.56
2023-04-05T02:27:05.752Z,97942.69
2023-04-05T02:29:34.892Z,97939.25
2023-04-05T02:32:02.970Z,97920.41
2023-04-05T02:34:31.220Z,97935.78
2023-04-05T02:36:59.020Z,97922.03
2023-04-05T02:39:29.104Z,97928.91
2023-04-05T02:41:57.003Z,97927.16
2023-04-05T02:44:24.849Z,97923.72
2023-04-05T02:46:52.869Z,97924.63
2023-04-05T02:49:20.921Z,97930.78
2023-04-05T02:51:48.775Z,97929.13
2023-04-05T02:54:16.543Z,97927.41
2023-04-05T02:56:46.358Z,97927.47
2023-04-05T02:59:14.860Z,97928.38
2023-04-05T03:01:44.390Z,97930.06
2023-04-05T03:04:13.111Z,97925.81
2023-04-05T03:06:48.806Z,97943.09
2023-04-05T03:09:16.734Z,97932.84
2023-04-05T03:11:45.894Z,97931.97
2023-04-05T03:14:14.015Z,97934.63
2023-04-05T03:16:41.860Z,97932.84
2023-04-05T03:19:10.013Z,97913.91
2023-04-05T03:21:37.840Z,97923.38
2023-04-05T03:24:07.267Z,97920.88
2023-04-05T03:26:35.095Z,97923.44
2023-04-05T03:29:04.296Z,97917.44
2023-04-05T03:31:32.132Z,97914.00
2023-04-05T03:34:00.016Z,97920.03
2023-04-05T03:36:28.802Z,97916.66
2023-04-05T03:38:56.723Z,97919.28
2023-04-05T03:41:24.567Z,97914.13
2023-04-05T03:43:52.596Z,97910.69
2023-04-05T03:46:21.814Z,97911.53
2023-04-05T03:48:49.670Z,97910.75
2023-04-05T03:51:18.973Z,97915.00
2023-04-05T03:53:47.004Z,97907.34
2023-04-05T03:56:15.237Z,97902.16
2023-04-05T03:58:43.142Z,97909.09
2023-04-05T04:01:11.456Z,97912.56
2023-04-05T04:03:40.639Z,97919.50
2023-04-05T04:06:09.368Z,97916.09
2023-04-05T04:08:37.301Z,97916.09
2023-04-05T04:11:05.485Z,97911.78
2023-04-05T04:13:33.348Z,97910.94
2023-04-05T04:16:01.301Z,97912.72
2023-04-05T04:18:29.140Z,97898.09
2023-04-05T04:20:58.735Z,97916.97
2023-04-05T04:23:27.352Z,97914.44
2023-04-05T04:25:55.947Z,97910.13
2023-04-05T04:28:25.107Z,97901.44
2023-04-05T04:30:52.988Z,97906.66
2023-04-05T04:33:20.945Z,97905.84
2023-04-05T04:35:48.770Z,97911.00
2023-04-05T04:38:20.575Z,97903.28
2023-04-05T04:40:50.875Z,97909.41
2023-04-05T04:43:19.005Z,97888.84
2023-04-05T04:45:48.602Z,97904.19
2023-04-05T04:48:17.429Z,97900.78
2023-04-05T04:50:45.451Z,97911.16
2023-04-05T04:53:14.410Z,97907.69
2023-04-05T04:55:43.654Z,97906.81
2023-04-05T04:58:12.518Z,97908.56
2023-04-05T05:00:41.011Z,97902.59
2023-04-05T05:03:11.517Z,97906.03
2023-04-05T05:05:43.727Z,97910.34
2023-04-05T05:08:11.627Z,97913.81
2023-04-05T05:10:39.735Z,97907.81
2023-04-05T05:13:09.387Z,97909.47
2023-04-05T05:15:37.182Z,97914.59
2023-04-05T05:18:05.342Z,97919.75
2023-04-05T05:20:33.285Z,97915.41
2023-04-05T05:23:04.077Z,97917.94
2023-04-05T05:25:32.083Z,97916.16
2023-04-05T05:28:00.200Z,97914.38
2023-04-05T05:30:29.509Z,97909.94
2023-04-05T05:32:57.970Z,97907.31
2023-04-05T05:35:25.823Z,97912.41
2023-04-05T05:37:53.853Z,97900.22
2023-04-05T05:40:21.693Z,97917.38
2023-04-05T05:42:49.723Z,97912.06
2023-04-05T05:45:17.597Z,97905.91
2023-04-05T05:47:46.884Z,97906.59
2023-04-05T05:50:16.645Z,97909.00
2023-04-05T05:52:44.453Z,97901.06
2023-04-05T05:55:12.274Z,97902.59
2023-04-05T05:57:40.086Z,97902.34
2023-04-05T06:00:10.744Z,97909.06
2023-04-05T06:02:38.753Z,97909.69
2023-04-05T06:05:08.974Z,97915.56
2023-04-05T06:07:38.094Z,97911.88
2023-04-05T06:10:06.570Z,97891.25
2023-04-05T06:12:34.530Z,97908.94
2023-04-05T06:15:02.621Z,97904.41
2023-04-05T06:17:30.531Z,97911.97
2023-04-05T06:19:58.428Z,97914.38
2023-04-05T06:22:27.678Z,97915.97
2023-04-05T06:24:55.464Z,97920.25
2023-04-05T06:27:23.303Z,97913.97
2023-04-05T06:29:51.113Z,97924.28
2023-04-05T06:32:18.933Z,97929.31
2023-04-05T06:34:49.101Z,97932.53
2023-04-05T06:37:16.919Z,97928.75
2023-04-05T06:39:46.373Z,97926.03
2023-04-05T06:42:14.369Z,97931.00
2023-04-05T06:44:42.271Z,97921.41
2023-04-05T06:47:10.192Z,97923.69
2023-04-05T06:49:38.037Z,97927.88
2023-04-05T06:52:08.928Z,97924.16
2023-04-05T06:54:38.731Z,97923.03
2023-04-05T06:57:07.973Z,97910.81
2023-04-05T06:59:36.016Z,97916.72
2023-04-05T07:02:03.782Z,97913.59
2023-04-05T07:04:37.215Z,97919.78
2023-04-05T07:07:05.434Z,97924.03
2023-04-05T07:09:34.005Z,97911.47
2023-04-05T07:12:02.272Z,97911.34
2023-04-05T07:14:32.768Z,97912.91
2023-04-05T07:17:01.049Z,97907.69
2023-04-05T07:19:29.050Z,97908.88
2023-04-05T07:21:57.153Z,97893.78
2023-04-05T07:24:25.254Z,97903.44
2023-04-05T07:26:53.309Z,97900.50
2023-04-05T07:29:21.268Z,97901.25
2023-04-05T07:31:50.539Z,97902.97
2023-04-05T07:34:18.317Z,97903.72
2023-04-05T07:36:46.776Z,97905.28
2023-04-05T07:39:14.656Z,97902.66
2023-04-05T07:41:43.285Z,97893.31
2023-04-05T07:44:11.736Z,97903.38
2023-04-05T07:46:46.155Z,97897.09
2023-04-05T07:49:16.935Z,97900.78
2023-04-05T07:51:46.474Z,97905.34
2023-04-05T07:54:14.495Z,97901.84
2023-04-05T07:56:42.577Z,97910.97
2023-04-05T07:59:11.091Z,97912.56
2023-04-05T08:01:40.326Z,97914.31
2023-04-05T08:04:08.317Z,97912.41
2023-04-05T08:06:44.296Z,97902.19
2023-04-05T08:09:12.157Z,97903.78
2023-04-05T08:11:40.934Z,97910.47
2023-04-05T08:14:09.883Z,97909.84
2023-04-05T08:16:38.636Z,97905.53
2023-04-05T08:19:06.657Z,97896.13
2023-04-05T08:21:34.487Z,97894.69
2023-04-05T08:24:03.814Z,97889.97
2023-04-05T08:26:31.584Z,97902.31
2023-04-05T08:28:59.449Z,97898.47
2023-04-05T08:31:27.318Z,97894.81
2023-04-05T08:33:55.190Z,97889.09
2023-04-05T08:36:23.337Z,97877.50
2023-04-05T08:38:51.242Z,97893.72
2023-04-05T08:41:21.728Z,97887.59
2023-04-05T08:43:57.447Z,97880.19
2023-04-05T08:46:25.839Z,97893.97
2023-04-05T08:48:53.869Z,97889.22
2023-04-05T08:51:22.207Z,97891.69
2023-04-05T08:53:50.580Z,97899.16
2023-04-05T08:56:25.620Z,97871.75
2023-04-05T08:58:59.311Z,97876.81
2023-04-05T09:01:28.966Z,97886.59
2023-04-05T09:03:58.156Z,97882.75
2023-04-05T09:06:27.220Z,97891.97
2023-04-05T09:08:55.090Z,97887.38
2023-04-05T09:11:24.357Z,97889.19
2023-04-05T09:13:52.248Z,97869.41
2023-04-05T09:16:20.877Z,97862.66
2023-04-05T09:18:49.237Z,97883.84
2023-04-05T09:21:17.730Z,97874.31
2023-04-05T09:23:53.078Z,97879.69
2023-04-05T09:26:21.461Z,97884.22
2023-04-05T09:28:50.977Z,97881.41
2023-04-05T09:31:32.103Z,97876.53
2023-04-05T09:34:01.622Z,97878.97
2023-04-05T09:36:29.515Z,97884.56
2023-04-05T09:39:06.814Z,97880.50
2023-04-05T09:41:34.942Z,97873.84
2023-04-05T09:44:04.590Z,97871.63
2023-04-05T09:46:34.536Z,97875.44
2023-04-05T09:49:04.010Z,97888.53
2023-04-05T09:51:35.807Z,97879.25
2023-04-05T09:54:05.748Z,97879.81
2023-04-05T09:56:36.121Z,97857.94
2023-04-05T09:59:08.342Z,97869.88
2023-04-05T10:01:36.957Z,97881.09
2023-04-05T10:04:06.231Z,97869.06
2023-04-05T10:06:40.581Z,97864.75
2023-04-05T10:09:09.607Z,97873.66
2023-04-05T10:11:38.233Z,97866.34
2023-04-05T10:14:09.029Z,97859.25
2023-04-05T10:16:40.221Z,97865.66
2023-04-05T10:19:16.693Z,97864.13
2023-04-05T10:21:45.175Z,97841.13
2023-04-05T10:24:20.083Z,97862.03
2023-04-05T10:26:57.371Z,97858.59
2023-04-05T10:29:33.605Z,97862.75
2023-04-05T10:32:07.635Z,97847.94
2023-04-05T10:34:41.668Z,97848.25
2023-04-05T10:37:14.905Z,97848.00
2023-04-05T10:39:46.934Z,97852.06
2023-04-05T10:42:19.404Z,97842.16
2023-04-05T10:44:52.929Z,97844.19
2023-04-05T10:47:20.966Z,97844.16
2023-04-05T10:49:51.038Z,97841.78
2023-04-05T10:52:19.348Z,97830.75
2023-04-05T10:54:47.485Z,97840.78
2023-04-05T10:57:15.546Z,97841.97
2023-04-05T10:59:45.582Z,97829.97
2023-04-05T11:02:15.651Z,97835.16
2023-04-05T11:04:43.717Z,97824.47
2023-04-05T11:07:13.353Z,97835.47
2023-04-05T11:09:51.694Z,97817.69
2023-04-05T11:12:19.521Z,97830.78
2023-04-05T11:14:47.387Z,97826.06
2023-04-05T11:17:30.990Z,97798.50
2023-04-05T11:20:04.872Z,97813.09
2023-04-05T11:22:33.109Z,97821.28
2023-04-05T11:25:03.194Z,97822.91
2023-04-05T11:27:32.016Z,97818.97
2023-04-05T11:30:01.222Z,97812.59
2023-04-05T11:32:41.732Z,97819.25
2023-04-05T11:35:14.414Z,97801.75
2023-04-05T11:37:58.894Z,97811.81
2023-04-05T11:40:29.195Z,97800.72
2023-04-05T11:43:05.931Z,97801.00
2023-04-05T11:45:34.627Z,97800.81
2023-04-05T11:48:06.365Z,97796.47
2023-04-05T11:50:34.974Z,97791.50
2023-04-05T11:53:09.776Z,97792.81
2023-04-05T11:55:37.879Z,97791.28
2023-04-05T11:58:13.249Z,97779.91
2023-04-05T12:00:42.155Z,97784.25
2023-04-05T12:03:14.168Z,97793.75
2023-04-05T12:05:49.846Z,97798.69
2023-04-05T12:08:18.036Z,97794.41
2023-04-05T12:10:46.557Z,97793.63
2023-04-05T12:13:14.437Z,97776.06
2023-04-05T12:15:42.436Z,97781.91
2023-04-05T12:18:21.395Z,97782.09
2023-04-05T12:20:49.269Z,97779.28
2023-04-05T12:23:17.887Z,97756.25
2023-04-05T12:25:47.868Z,97765.56
2023-04-05T12:28:15.855Z,97766.59
2023-04-05T12:30:50.107Z,97754.81
2023-04-05T12:33:29.356Z,97766.94
2023-04-05T12:35:57.315Z,97783.31
2023-04-05T12:38:27.512Z,97767.84
2023-04-05T12:40:55.381Z,97768.56
2023-04-05T12:43:24.361Z,97762.88
2023-04-05T12:45:56.514Z,97760.06
2023-04-05T12:48:26.102Z,97757.25
2023-04-05T12:50:55.455Z,97749.63
2023-04-05T12:53:25.417Z,97750.16
2023-04-05T12:55:55.037Z,97743.97
2023-04-05T12:58:24.232Z,97743.22
2023-04-05T13:00:52.101Z,97742.09
2023-04-05T13:03:21.586Z,97738.53
2023-04-05T13:05:49.791Z,97734.19
2023-04-05T13:08:19.422Z,97718.53
2023-04-05T13:10:47.840Z,97724.66
2023-04-05T13:13:16.455Z,97733.47
2023-04-05T13:15:44.795Z,97728.22
2023-04-05T13:18:14.919Z,97724.69
2023-04-05T13:20:43.576Z,97716.09
2023-04-05T13:23:12.777Z,97717.06
2023-04-05T13:25:43.403Z,97718.19
2023-04-05T13:28:11.830Z,97706.69
2023-04-05T13:30:39.774Z,97707.44
2023-04-05T13:33:07.641Z,97705.09
2023-04-05T13:35:35.737Z,97702.31
2023-04-05T13:38:04.828Z,97707.50
2023-04-05T13:40:32.925Z,97702.50
2023-04-05T13:43:02.165Z,97693.47
2023-04-05T13:45:30.069Z,97689.72
2023-04-05T13:47:57.940Z,97682.25
2023-04-05T13:50:26.260Z,97691.03
2023-04-05T13:52:54.080Z,97697.44
2023-04-05T13:55:21.902Z,97694.72
2023-04-05T13:57:49.944Z,97687.38
2023-04-05T14:00:19.588Z,97685.28
2023-04-05T14:02:48.945Z,97685.88
2023-04-05T14:05:18.214Z,97679.13
2023-04-05T14:07:46.563Z,97679.41
2023-04-05T14:10:15.067Z,97675.38
2023-04-05T14:12:42.899Z,97686.06
2023-04-05T14:15:11.571Z,97682.25
2023-04-05T14:17:40.960Z,97674.69
2023-04-05T14:20:09.505Z,97673.06
2023-04-05T14:22:37.359Z,97674.78
2023-04-05T14:25:08.042Z,97678.00
2023-04-05T14:27:41.245Z,97675.28
2023-04-05T14:30:10.284Z,97669.00
2023-04-05T14:32:38.130Z,97665.91
2023-04-05T14:35:08.538Z,97674.31
2023-04-05T14:37:36.551Z,97663.47
2023-04-05T14:40:04.632Z,97659.06
2023-04-05T14:42:47.704Z,97659.94
2023-04-05T14:45:16.841Z,97649.94
2023-04-05T14:47:44.756Z,97648.53
2023-04-05T14:50:14.053Z,97653.81
2023-04-05T14:52:41.862Z,97656.63
2023-04-05T14:55:12.441Z,97658.56
2023-04-05T14:57:40.332Z,97647.97
2023-04-05T15:00:09.286Z,97649.56
2023-04-05T15:02:38.116Z,97653.03
2023-04-05T15:05:06.960Z,97649.84
2023-04-05T15:07:36.185Z,97645.72
2023-04-05T15:10:04.262Z,97638.25
2023-04-05T15:12:33.107Z,97639.59
2023-04-05T15:15:02.257Z,97643.75
2023-04-05T15:17:30.196Z,97636.50
2023-04-05T15:19:58.078Z,97638.56
2023-04-05T15:22:27.076Z,97643.75
2023-04-05T15:24:56.467Z,97642.69
2023-04-05T15:27:24.267Z,97639.91
2023-04-05T15:29:52.076Z,97630.81
2023-04-05T15:32:19.915Z,97627.56
2023-04-05T15:34:47.723Z,97634.34
2023-04-05T15:37:15.605Z,97631.00
2023-04-05T15:39:43.428Z,97630.59
2023-04-05T15:42:12.630Z,97628.63
2023-04-05T15:44:40.453Z,97629.72
2023-04-05T15:47:08.252Z,97631.78
2023-04-05T15:49:36.030Z,97627.53
2023-04-05T15:52:03.862Z,97628.31
2023-04-05T15:54:31.711Z,97629.88
2023-04-05T15:56:59.530Z,97631.25
2023-04-05T15:59:28.791Z,97630.59
2023-04-05T16:01:56.652Z,97625.97
2023-04-05T16:04:24.973Z,97625.97
2023-04-05T16:06:52.914Z,97618.50
2023-04-05T16:09:20.762Z,97604.47
2023-04-05T16:11:48.625Z,97612.81
2023-04-05T16:14:16.727Z,97615.97
2023-04-05T16:16:53.839Z,97614.69
2023-04-05T16:19:23.480Z,97610.59
2023-04-05T16:21:52.773Z,97611.34
2023-04-05T16:24:21.246Z,97609.84
2023-04-05T16:26:49.126Z,97600.75
2023-04-05T16:29:16.952Z,97613.19
2023-04-05T16:31:47.542Z,97610.69
2023-04-05T16:34:15.661Z,97604.34
2023-04-05T16:36:43.660Z,97604.34
2023-04-05T16:39:11.472Z,97599.91
2023-04-05T16:41:39.260Z,97604.34
2023-04-05T16:44:07.094Z,97601.28
2023-04-05T16:46:34.895Z,97601.78
2023-04-05T16:49:04.437Z,97598.53
2023-04-05T16:51:32.540Z,97604.03
2023-04-05T16:54:00.821Z,97598.34
2023-04-05T16:56:28.601Z,97601.81
2023-04-05T16:58:57.645Z,97595.25
2023-04-05T17:01:26.684Z,97597.66
2023-04-05T17:03:54.652Z,97605.09
2023-04-05T17:06:23.882Z,97611.19
2023-04-05T17:08:51.677Z,97605.41
2023-04-05T17:11:19.433Z,97596.69
2023-04-05T17:13:47.484Z,97605.88
2023-04-05T17:16:16.180Z,97598.59
2023-04-05T17:18:44.051Z,97609.28
2023-04-05T17:21:12.417Z,97596.06
2023-04-05T17:23:41.595Z,97602.69
2023-04-05T17:26:09.471Z,97605.47
2023-04-05T17:28:37.275Z,97607.38
2023-04-05T17:31:05.252Z,97609.53
2023-04-05T17:33:33.217Z,97611.56
2023-04-05T17:36:02.053Z,97586.91
2023-04-05T17:38:30.025Z,97606.50
2023-04-05T17:40:59.490Z,97607.38
2023-04-05T17:43:27.557Z,97604.03
2023-04-05T17:45:55.578Z,97610.88
2023-04-05T17:48:23.718Z,97568.56
2023-04-05T17:50:51.746Z,97619.94
2023-04-05T17:53:19.599Z,97617.75
2023-04-05T17:55:47.401Z,97612.69
2023-04-05T17:58:16.642Z,97622.56
2023-04-05T18:00:45.015Z,97620.13
2023-04-05T18:03:13.329Z,97616.06
2023-04-05T18:05:41.371Z,97620.97
2023-04-05T18:08:09.169Z,97623.13
2023-04-05T18:10:37.055Z,97622.44
2023-04-05T18:13:05.893Z,97630.06
2023-04-05T18:15:35.100Z,97631.31
2023-04-05T18:18:02.981Z,97633.16
2023-04-05T18:20:30.859Z,97637.03
2023-04-05T18:22:59.892Z,97637.50
2023-04-05T18:25:28.205Z,97640.38
2023-04-05T18:27:56.556Z,97637.25
2023-04-05T18:30:24.443Z,97641.25
2023-04-05T18:32:53.625Z,97643.44
2023-04-05T18:35:22.096Z,97643.91
2023-04-05T18:37:49.966Z,97642.50
2023-04-05T18:40:18.005Z,97645.19
2023-04-05T18:42:46.437Z,97651.91
2023-04-05T18:45:14.315Z,97642.78
2023-04-05T18:47:42.243Z,97645.41
2023-04-05T18:50:12.392Z,97640.66
2023-04-05T18:52:40.377Z,97643.16
2023-04-05T18:55:09.448Z,97641.94
2023-04-05T18:57:37.218Z,97656.94
2023-04-05T19:00:06.106Z,97658.09
2023-04-05T19:02:33.987Z,97661.22
2023-04-05T19:05:01.903Z,97663.06
2023-04-05T19:07:31.194Z,97669.44
2023-04-05T19:09:59.027Z,97652.28
2023-04-05T19:12:26.895Z,97662.09
2023-04-05T19:14:54.750Z,97661.75
2023-04-05T19:17:22.570Z,97668.19
2023-04-05T19:19:50.402Z,97667.63
2023-04-05T19:22:18.242Z,97665.97
2023-04-05T19:24:47.453Z,97660.97
2023-04-05T19:27:15.566Z,97667.19
2023-04-05T19:29:43.400Z,97670.88
2023-04-05T19:32:11.274Z,97664.22
2023-04-05T19:34:39.727Z,97670.56
2023-04-05T19:37:07.579Z,97665.53
2023-04-05T19:39:37.277Z,97666.47
2023-04-05T19:42:07.358Z,97665.00
2023-04-05T19:44:48.947Z,97666.09
2023-04-05T19:47:19.073Z,97647.78
2023-04-05T19:49:46.965Z,97659.78
2023-04-05T19:52:35.861Z,97665.16
2023-04-05T19:55:09.977Z,97671.44
2023-04-05T19:57:45.933Z,97661.25
2023-04-05T20:00:35.040Z,97668.31
2023-04-05T20:03:03.358Z,97668.59
2023-04-05T20:05:59.638Z,97660.06
2023-04-05T20:08:27.471Z,97666.47
2023-04-05T20:10:55.333Z,97634.47
2023-04-05T20:13:24.548Z,97661.72
2023-04-05T20:15:52.777Z,97657.59
2023-04-05T20:18:23.814Z,97661.22
2023-04-05T20:20:53.238Z,97676.19
2023-04-05T20:23:23.280Z,97662.47
2023-04-05T20:25:52.252Z,97661.75
2023-04-05T20:28:29.879Z,97660.19
2023-04-05T20:30:57.768Z,97667.28
2023-04-05T20:33:36.107Z,97665.63
2023-04-05T20:36:10.057Z,97661.47
2023-04-05T20:38:38.652Z,97664.06
2023-04-05T20:41:06.926Z,97658.84
2023-04-05T20:43:36.411Z,97666.56
2023-04-05T20:46:06.278Z,97663.69
2023-04-05T20:48:35.413Z,97653.97
2023-04-05T20:51:04.742Z,97650.25
2023-04-05T20:53:33.190Z,97651.91
2023-04-05T20:56:01.372Z,97650.34
2023-04-05T20:58:29.298Z,97640.88
2023-04-05T21:00:58.929Z,97646.34
2023-04-05T21:03:26.880Z,97640.38
2023-04-05T21:05:54.756Z,97652.72
2023-04-05T21:08:22.507Z,97655.34
2023-04-05T21:10:50.370Z,97646.84
2023-04-05T21:13:18.173Z,97645.16
2023-04-05T21:15:46.108Z,97647.09
2023-04-05T21:18:15.494Z,97645.50
2023-04-05T21:20:50.344Z,97641.44
2023-04-05T21:23:18.315Z,97649.06
2023-04-05T21:25:46.185Z,97645.75
2023-04-05T21:28:14.285Z,97641.19
2023-04-05T21:30:42.128Z,97639.56
2023-04-05T21:33:09.983Z,97633.63
2023-04-05T21:35:39.266Z,97649.41
2023-04-05T21:38:07.327Z,97641.09
2023-04-05T21:40:35.502Z,97643.03
2023-04-05T21:43:03.316Z,97650.13
2023-04-05T21:45:31.198Z,97644.13
2023-04-05T21:47:59.045Z,97647.81
2023-04-05T21:50:26.945Z,97636.66
2023-04-05T21:52:56.089Z,97650.69
2023-04-05T21:55:23.973Z,97633.50
2023-04-05T21:57:51.815Z,97648.41
2023-04-05T22:00:20.286Z,97638.13
2023-04-05T22:02:48.274Z,97616.19
2023-04-05T22:05:29.485Z,97634.19
2023-04-05T22:08:06.239Z,97637.72
2023-04-05T22:10:35.137Z,97637.81
2023-04-05T22:13:02.933Z,97631.88
2023-04-05T22:15:31.030Z,97631.13
2023-04-05T22:17:58.907Z,97626.91
2023-04-05T22:20:26.727Z,97633.91
2023-04-05T22:22:54.584Z,97630.56
2023-04-05T22:25:23.804Z,97628.09
2023-04-05T22:27:51.626Z,97635.09
2023-04-05T22:30:21.219Z,97629.22
2023-04-05T22:32:51.808Z,97633.69
2023-04-05T22:35:19.821Z,97630.41
2023-04-05T22:37:47.622Z,97622.75
2023-04-05T22:40:15.527Z,97630.66
2023-04-05T22:42:46.476Z,97629.06
2023-04-05T22:45:14.285Z,97628.25
2023-04-05T22:47:42.197Z,97632.66
2023-04-05T22:50:10.637Z,97625.69
2023-04-05T22:52:38.674Z,97628.28
2023-04-05T22:55:07.824Z,97629.19
2023-04-05T22:57:35.654Z,97632.69
2023-04-05T23:00:05.657Z,97629.13
2023-04-05T23:02:33.572Z,97622.19
2023-04-05T23:05:01.541Z,97616.97
2023-04-05T23:07:29.562Z,97625.69
2023-04-05T23:09:57.363Z,97620.69
2023-04-05T23:12:25.175Z,97623.41
2023-04-05T23:14:52.934Z,97620.06
2023-04-05T23:17:22.690Z,97616.72
2023-04-05T23:19:50.540Z,97615.13
2023-04-05T23:22:18.360Z,97622.13
2023-04-05T23:24:46.159Z,97618.75
2023-04-05T23:27:14.151Z,97618.84
2023-04-05T23:29:42.054Z,97625.09
2023-04-05T23:32:12.907Z,97617.31
2023-04-05T23:34:42.188Z,97618.22
2023-04-05T23:37:10.424Z,97616.69
2023-04-05T23:39:38.333Z,97613.19
2023-04-05T23:42:06.541Z,97609.09
2023-04-05T23:44:34.582Z,97615.19
2023-04-05T23:47:02.671Z,97617.13
2023-04-05T23:49:30.878Z,97608.59
2023-04-05T23:52:00.484Z,97607.84
2023-04-05T23:54:28.463Z,97610.50
2023-04-05T23:56:57.602Z,97602.00
2023-04-05T23:59:26.303Z,97600.31
